PWSweather.com
Personal Weather Stations
Station Observations
J24K28P63
Vysocina, PocatkyCZ 39464

VysocinaPocatkyCZ 39464

Lat: 49.2594238, Lon: 15.2331769

Elevation: 2011

Station Type: Vantage Pro2+

http://meteo-jirkalina.com

High Low Average
Temperature 32.1°F0.1°F 24.1°F-4.4°F 25.8°F-3.4°F
Dew Point 28.9°F-1.7°F 19.4°F-7.0°F 22.7°F-5.2°F
Winds 3.8 mph -6.1 mph - Calm Calm 0.5 mph 0.8 mph
Wind Gusts 7.0 mph11.3 mph -- 1.3 mph2.1 mph
Humidity 90% 82% 88%
Pressure 30.30 in1026.10 in 30.16 in1021.30 in -
Precipitation 0.02 in0.50 in - -
Hour Temp Dew Point Humidity Winds Wind Gusts Pressure Precip Precip Rate Daily Precip Total
12:00 AM 25.1°F-3.8°C 22.0°F-5.6°C 88% Calm Calm -- 30.24 in1024.0 mb - 0.00 in0.0 mm 0.00 in0.0 mm
12:30 AM 25.1°F-3.8°C 22.3°F-5.4°C 89% Calm Calm -- 30.24 in1024.0 mb - 0.00 in0.0 mm 0.00 in0.0 mm
01:00 AM 25.1°F-3.8°C 22.3°F-5.4°C 89% Calm Calm -- 30.24 in1024.0 mb - 0.00 in0.0 mm 0.00 in0.0 mm
01:30 AM 25.0°F-3.9°C 22.5°F-5.3°C 90% Calm Calm -- 30.24 in1024.0 mb - 0.00 in0.0 mm 0.00 in0.0 mm
02:00 AM 25.0°F-3.9°C 22.5°F-5.3°C 90% Calm Calm -- 30.24 in1024.0 mb - 0.00 in0.0 mm 0.00 in0.0 mm
02:30 AM 25.0°F-3.9°C 22.5°F-5.3°C 90% Calm Calm -- 30.24 in1024.0 mb - 0.00 in0.0 mm 0.00 in0.0 mm
03:00 AM 24.8°F-4.0°C 22.3°F-5.4°C 90% Calm Calm -- 30.25 in1024.4 mb - 0.00 in0.0 mm 0.00 in0.0 mm
03:30 AM 24.8°F-4.0°C 22.3°F-5.4°C 90% Calm Calm -- 30.24 in1024.0 mb - 0.00 in0.0 mm 0.00 in0.0 mm
04:00 AM 24.8°F-4.0°C 22.3°F-5.4°C 90% 0.9 mph N1.4 kmh N 5.0 mph8.0 kmh 30.24 in1024.0 mb - 0.00 in0.0 mm 0.00 in0.0 mm
04:30 AM 24.8°F-4.0°C 21.8°F-5.7°C 88% 3.8 mph NNE6.1 kmh NNE 7.0 mph11.3 kmh 30.25 in1024.4 mb - 0.00 in0.0 mm 0.00 in0.0 mm
05:00 AM 24.7°F-4.1°C 21.4°F-5.9°C 87% 3.1 mph NNE5.0 kmh NNE 4.0 mph6.4 kmh 30.24 in1024.0 mb - 0.00 in0.0 mm 0.00 in0.0 mm
05:30 AM 24.5°F-4.2°C 20.6°F-6.3°C 85% 0.2 mph NNE0.3 kmh NNE 2.0 mph3.2 kmh 30.25 in1024.4 mb - 0.00 in0.0 mm 0.00 in0.0 mm
06:00 AM 24.5°F-4.2°C 20.9°F-6.2°C 86% Calm Calm -- 30.25 in1024.4 mb - 0.00 in0.0 mm 0.00 in0.0 mm
06:30 AM 24.4°F-4.2°C 21.1°F-6.1°C 87% Calm Calm -- 30.25 in1024.4 mb - 0.00 in0.0 mm 0.00 in0.0 mm
07:00 AM 24.1°F-4.4°C 20.8°F-6.2°C 87% Calm Calm -- 30.25 in1024.4 mb - 0.00 in0.0 mm 0.00 in0.0 mm
07:30 AM 24.2°F-4.3°C 21.2°F-6.0°C 88% 2.9 mph NE4.7 kmh NE 4.0 mph6.4 kmh 30.26 in1024.7 mb - 0.00 in0.0 mm 0.00 in0.0 mm
08:00 AM 24.1°F-4.4°C 21.3°F-5.9°C 89% Calm Calm -- 30.26 in1024.7 mb - 0.00 in0.0 mm 0.00 in0.0 mm
08:30 AM 24.1°F-4.4°C 21.6°F-5.8°C 90% Calm Calm -- 30.27 in1025.1 mb - 0.00 in0.0 mm 0.00 in0.0 mm
09:00 AM 24.4°F-4.2°C 21.6°F-5.8°C 89% Calm Calm -- 30.27 in1025.1 mb - 0.00 in0.0 mm 0.00 in0.0 mm
09:30 AM 24.7°F-4.1°C 21.9°F-5.6°C 89% Calm Calm -- 30.27 in1025.1 mb - 0.01 in0.3 mm 0.01 in0.3 mm
10:00 AM 25.1°F-3.8°C 22.3°F-5.4°C 89% Calm Calm -- 30.27 in1025.1 mb - 0.01 in0.3 mm 0.02 in0.5 mm
10:30 AM 25.3°F-3.7°C 22.2°F-5.4°C 88% Calm Calm -- 30.27 in1025.1 mb - 0.00 in0.0 mm 0.02 in0.5 mm
11:00 AM 25.8°F-3.4°C 22.7°F-5.2°C 88% Calm Calm -- 30.26 in1024.7 mb - 0.00 in0.0 mm 0.02 in0.5 mm
11:30 AM 26.3°F-3.2°C 23.2°F-4.9°C 88% 0.1 mph NW0.2 kmh NW 2.0 mph3.2 kmh 30.25 in1024.4 mb - 0.00 in0.0 mm 0.02 in0.5 mm
12:00 PM 26.6°F-3.0°C 23.5°F-4.7°C 88% 1.5 mph NNW2.4 kmh NNW 5.0 mph8.0 kmh 30.24 in1024.0 mb - 0.00 in0.0 mm 0.02 in0.5 mm
12:30 PM 26.5°F-3.1°C 22.9°F-5.1°C 86% 1.5 mph WNW2.4 kmh WNW 2.0 mph3.2 kmh 30.23 in1023.7 mb - 0.00 in0.0 mm 0.02 in0.5 mm
01:00 PM 26.7°F-2.9°C 23.1°F-4.9°C 86% 0.1 mph NW0.2 kmh NW 1.0 mph1.6 kmh 30.23 in1023.7 mb - 0.00 in0.0 mm 0.02 in0.5 mm
01:30 PM 26.7°F-2.9°C 23.1°F-4.9°C 86% 0.5 mph NW0.8 kmh NW -- 30.22 in1023.4 mb - 0.00 in0.0 mm 0.02 in0.5 mm
01:40 PM 32.0°F0.0°C 28.9°F-1.7°C 88% Calm Calm 1.0 mph1.6 kmh 30.30 in1026.1 mb - 0.00 in0.0 mm 0.02 in0.5 mm
01:50 PM 32.1°F0.1°C 28.9°F-1.7°C 88% Calm Calm 1.0 mph1.6 kmh 30.30 in1026.1 mb - 0.00 in0.0 mm 0.02 in0.5 mm
02:00 PM 32.1°F0.1°C 28.9°F-1.7°C 88% 1.0 mph SE1.6 kmh SE 2.0 mph3.2 kmh 30.30 in1026.1 mb - 0.00 in0.0 mm 0.02 in0.5 mm
02:10 PM 32.1°F0.1°C 28.9°F-1.7°C 88% Calm Calm 1.0 mph1.6 kmh 30.30 in1026.1 mb - 0.00 in0.0 mm 0.02 in0.5 mm
02:30 PM 26.1°F-3.3°C 23.3°F-4.8°C 89% 2.5 mph N4.0 kmh N 6.0 mph9.7 kmh 30.22 in1023.4 mb - 0.00 in0.0 mm 0.02 in0.5 mm
03:00 PM 26.0°F-3.3°C 23.2°F-4.9°C 89% 2.3 mph N3.7 kmh N 5.0 mph8.0 kmh 30.22 in1023.4 mb - 0.00 in0.0 mm 0.02 in0.5 mm
03:30 PM 25.8°F-3.4°C 23.0°F-5.0°C 89% Calm Calm -- 30.23 in1023.7 mb - 0.00 in0.0 mm 0.02 in0.5 mm
04:00 PM 25.8°F-3.4°C 23.3°F-4.8°C 90% 1.4 mph NNE2.3 kmh NNE 3.0 mph4.8 kmh 30.23 in1023.7 mb - 0.00 in0.0 mm 0.02 in0.5 mm
04:30 PM 25.7°F-3.5°C 23.2°F-4.9°C 90% 1.7 mph N2.7 kmh N 4.0 mph6.4 kmh 30.23 in1023.7 mb - 0.00 in0.0 mm 0.02 in0.5 mm
05:00 PM 25.7°F-3.5°C 23.2°F-4.9°C 90% 0.9 mph NNE1.4 kmh NNE 5.0 mph8.0 kmh 30.22 in1023.4 mb - 0.00 in0.0 mm 0.02 in0.5 mm
05:30 PM 25.5°F-3.6°C 22.7°F-5.2°C 89% 0.6 mph NNE1.0 kmh NNE 3.0 mph4.8 kmh 30.21 in1023.0 mb - 0.00 in0.0 mm 0.02 in0.5 mm
06:00 PM 25.4°F-3.7°C 22.6°F-5.2°C 89% 0.9 mph N1.4 kmh N 3.0 mph4.8 kmh 30.21 in1023.0 mb - 0.00 in0.0 mm 0.02 in0.5 mm
06:30 PM 25.3°F-3.7°C 22.2°F-5.4°C 88% Calm Calm -- 30.22 in1023.4 mb - 0.00 in0.0 mm 0.02 in0.5 mm
07:00 PM 25.3°F-3.7°C 22.0°F-5.6°C 87% Calm Calm 1.0 mph1.6 kmh 30.22 in1023.4 mb - 0.00 in0.0 mm 0.02 in0.5 mm
07:30 PM 25.1°F-3.8°C 21.8°F-5.7°C 87% Calm Calm -- 30.21 in1023.0 mb - 0.00 in0.0 mm 0.02 in0.5 mm
08:00 PM 25.0°F-3.9°C 21.1°F-6.1°C 85% Calm Calm -- 30.21 in1023.0 mb - 0.00 in0.0 mm 0.02 in0.5 mm
08:30 PM 24.8°F-4.0°C 20.9°F-6.2°C 85% Calm Calm -- 30.21 in1023.0 mb - 0.00 in0.0 mm 0.02 in0.5 mm
09:00 PM 24.8°F-4.0°C 21.2°F-6.0°C 86% Calm Calm -- 30.20 in1022.7 mb - 0.00 in0.0 mm 0.02 in0.5 mm
09:30 PM 24.7°F-4.1°C 21.7°F-5.7°C 88% Calm Calm -- 30.19 in1022.4 mb - 0.00 in0.0 mm 0.02 in0.5 mm
10:00 PM 24.5°F-4.2°C 21.5°F-5.8°C 88% 0.2 mph N0.3 kmh N 1.0 mph1.6 kmh 30.18 in1022.0 mb - 0.00 in0.0 mm 0.02 in0.5 mm
10:30 PM 24.4°F-4.2°C 21.1°F-6.1°C 87% Calm Calm -- 30.18 in1022.0 mb - 0.00 in0.0 mm 0.02 in0.5 mm
11:00 PM 24.2°F-4.3°C 20.3°F-6.5°C 85% 0.5 mph NNE0.8 kmh NNE 1.0 mph1.6 kmh 30.17 in1021.7 mb - 0.00 in0.0 mm 0.02 in0.5 mm
11:30 PM 24.1°F-4.4°C 19.4°F-7.0°C 82% Calm Calm -- 30.16 in1021.3 mb - 0.00 in0.0 mm 0.02 in0.5 mm
11:50 PM 30.4°F-0.9°C 26.7°F-2.9°C 86% 0.3 mph E0.5 kmh E 1.0 mph1.6 kmh 30.20 in1022.7 mb - 0.00 in0.0 mm 0.02 in0.5 mm